Washington, District of Columbia
Current Conditions -  °F | °C
As of 11:52 PM on Wednesday 22 Oct 2014 (Local Time) from KDCA Reporting Station
Broken Clouds Broken Clouds  
Wind Chill: 13°   Ceiling: 6000
Heat Index: 13°   Visibility: 10mi
Dew Point:   Wind: 18mph
Humidity: 62%   Direction: 310°NW
Pressure: 29.93"   Gusts: 28mph
Location:  38.89°N, 77.03°W
Report Text: KDCA 230352Z 31016G24KT 10SM FEW045 BKN060 13/06 A2993 RMK AO2 SLP135 T01280056
Loading
Personal Weather Stations






























Interactive Weather Map
Tropical Storm Tracking
New forecast layout! Learn more

10-Day Weather Forecast

Advertisements
Track Severe Weather on mobile